Time;durP1;ratioP1;P1;durP2;ratioP2;P2;SDS_P1;SDS_P2;PMS_P1;PMS_P2;Temp;Humidity;BMP_temperature;BMP_pressure;BME280_temperature;BME280_humidity;BME280_pressure;Samples;Min_cycle;Max_cycle;Signal;HPM_P1;HPM_P2
2021/06/12 03:33:37;;;;;;;11.03;9.57;;;;;;;21.49;56.03;99021.94;6818069;29;20263;-86
2021/06/12 03:36:58;;;;;;;11.30;9.70;;;;;;;21.28;55.98;99002.94;6820421;29;20198;-86
2021/06/12 03:40:20;;;;;;;10.53;9.70;;;;;;;21.27;56.62;99019.69;6819636;29;20205;-85
2021/06/12 03:43:41;;;;;;;10.30;9.30;;;;;;;20.86;56.04;98916.41;6850725;23;20237;-81
2021/06/12 03:47:03;;;;;;;10.93;9.27;;;;;;;21.55;55.33;99014.56;6867440;28;20355;-81
2021/06/12 03:50:27;;;;;;;9.17;7.97;;;;;;;21.76;54.70;99024.50;6889070;28;20204;-82
2021/06/12 03:53:48;;;;;;;10.37;9.47;;;;;;;21.64;55.16;99016.50;6900820;28;20297;-82
2021/06/12 03:57:10;;;;;;;9.97;9.07;;;;;;;21.67;55.00;99013.25;6911985;28;20272;-82
2021/06/12 04:00:31;;;;;;;10.47;9.47;;;;;;;21.64;55.06;99010.19;6899551;28;20225;-83
2021/06/12 04:03:55;;;;;;;11.13;9.20;;;;;;;21.58;55.22;99016.75;6897476;28;20688;-82
2021/06/12 04:07:17;;;;;;;10.53;9.53;;;;;;;20.96;57.66;99024.22;6899066;28;20224;-81
2021/06/12 04:10:38;;;;;;;11.00;9.20;;;;;;;21.27;56.77;99031.47;6897925;28;20204;-82
2021/06/12 04:14:00;;;;;;;11.23;10.03;;;;;;;20.81;58.74;99037.78;6904511;28;20227;-82
2021/06/12 04:17:21;;;;;;;10.53;9.40;;;;;;;21.16;57.00;98993.31;6902867;28;20219;-83
2021/06/12 04:20:44;;;;;;;10.40;9.50;;;;;;;21.02;57.25;98989.41;6875584;28;20206;-81
2021/06/12 04:24:08;;;;;;;10.20;9.40;;;;;;;21.45;56.99;99036.47;6884398;28;20252;-82
2021/06/12 04:27:29;;;;;;;10.07;9.07;;;;;;;21.57;56.16;99039.81;6902167;28;20234;-83
2021/06/12 04:30:50;;;;;;;10.20;9.30;;;;;;;21.54;56.62;99045.84;6879851;28;20685;-82
2021/06/12 04:34:11;;;;;;;10.03;9.03;;;;;;;21.69;55.78;99023.94;6875659;28;20773;-82
2021/06/12 04:37:32;;;;;;;10.33;9.33;;;;;;;22.03;55.21;99034.19;6872272;28;20291;-83
2021/06/12 04:40:55;;;;;;;9.93;9.03;;;;;;;22.17;54.89;99029.78;6871901;28;20627;-82
2021/06/12 04:44:16;;;;;;;10.03;9.13;;;;;;;21.70;55.92;99048.41;6871846;28;20242;-82
2021/06/12 04:47:37;;;;;;;10.57;9.57;;;;;;;21.56;56.58;99044.50;6871128;28;20232;-83
2021/06/12 04:50:58;;;;;;;9.83;9.00;;;;;;;22.39;55.19;99038.59;6870925;28;20212;-83
2021/06/12 04:54:20;;;;;;;9.53;8.73;;;;;;;22.90;53.63;99037.44;6871428;28;20230;-83
2021/06/12 04:57:42;;;;;;;9.20;8.30;;;;;;;22.95;53.35;99028.38;6871382;28;20217;-82
2021/06/12 05:01:04;;;;;;;10.07;9.07;;;;;;;22.84;53.99;99046.00;6870875;28;20228;-82
2021/06/12 05:04:26;;;;;;;9.43;8.53;;;;;;;22.28;55.19;99055.34;6873899;28;20233;-81
2021/06/12 05:07:47;;;;;;;9.43;8.53;;;;;;;23.31;52.07;99027.97;6889925;28;20216;-81
2021/06/12 05:11:08;;;;;;;9.20;7.87;;;;;;;23.76;51.05;99043.44;6870998;28;20219;-82
2021/06/12 05:14:31;;;;;;;8.77;7.87;;;;;;;24.45;49.33;99035.81;6870963;28;20233;-82
2021/06/12 05:17:52;;;;;;;8.17;7.43;;;;;;;24.85;48.23;99040.97;6870667;28;20270;-82
2021/06/12 05:21:14;;;;;;;8.67;7.87;;;;;;;24.87;48.07;99036.81;6868600;28;20213;-82
2021/06/12 05:24:35;;;;;;;8.47;7.67;;;;;;;25.12;46.72;99032.97;6885088;28;20271;-82
2021/06/12 05:27:57;;;;;;;8.83;8.13;;;;;;;24.97;47.39;99042.25;6879353;28;20231;-82
2021/06/12 05:31:19;;;;;;;9.27;7.73;;;;;;;24.96;47.87;99031.50;6883994;28;20618;-82
2021/06/12 05:34:40;;;;;;;8.63;7.53;;;;;;;25.51;46.37;99034.44;6881848;28;20232;-82
2021/06/12 05:38:02;;;;;;;9.00;8.07;;;;;;;25.27;46.68;99033.66;6883200;28;20727;-82
2021/06/12 05:41:23;;;;;;;8.77;7.90;;;;;;;24.89;47.34;99031.81;6884304;28;20661;-81
2021/06/12 05:44:44;;;;;;;8.07;7.37;;;;;;;25.34;46.64;99036.88;6880147;28;20603;-82
2021/06/12 05:48:07;;;;;;;8.17;7.40;;;;;;;25.52;46.74;99035.25;6897741;28;20221;-82
2021/06/12 05:51:28;;;;;;;8.43;7.63;;;;;;;25.49;45.94;99005.47;6897874;28;20208;-85
2021/06/12 05:54:49;;;;;;;8.13;7.43;;;;;;;25.35;47.00;99026.63;6873564;28;20223;-84
2021/06/12 05:58:10;;;;;;;7.37;6.77;;;;;;;25.57;46.35;99036.00;6879496;28;20598;-84
2021/06/12 06:01:32;;;;;;;9.70;7.20;;;;;;;25.66;45.97;99009.38;6870121;28;20205;-84
2021/06/12 06:04:54;;;;;;;8.87;7.97;;;;;;;25.44;46.17;98991.72;6870702;28;20227;-83
2021/06/12 06:08:15;;;;;;;8.20;7.50;;;;;;;26.13;45.85;99025.81;6870562;28;20205;-82
2021/06/12 06:11:36;;;;;;;7.87;7.27;;;;;;;25.60;46.40;99013.31;6870601;28;20210;-84
2021/06/12 06:14:58;;;;;;;8.40;7.60;;;;;;;26.76;44.94;99012.31;6870433;28;20227;-84
2021/06/12 06:18:19;;;;;;;7.83;7.03;;;;;;;27.23;42.98;99023.06;6883217;28;20255;-83
2021/06/12 06:21:41;;;;;;;7.03;6.43;;;;;;;27.39;41.96;99019.69;6896820;28;20653;-83
2021/06/12 06:25:03;;;;;;;7.17;6.60;;;;;;;27.48;42.49;99033.63;6894433;28;20232;-83
2021/06/12 06:28:24;;;;;;;6.80;6.27;;;;;;;28.11;41.55;99026.13;6888049;28;20684;-83
2021/06/12 06:31:46;;;;;;;7.27;6.50;;;;;;;28.03;41.12;99018.56;6888045;28;20206;-83
2021/06/12 06:35:08;;;;;;;7.00;6.30;;;;;;;28.61;41.02;99019.38;6895934;28;20230;-84
2021/06/12 06:38:30;;;;;;;8.07;6.33;;;;;;;29.17;38.74;99003.69;6890016;28;20210;-83
2021/06/12 06:41:52;;;;;;;7.10;6.43;;;;;;;29.28;38.93;99024.47;6895412;28;20209;-83
2021/06/12 06:45:13;;;;;;;7.27;6.37;;;;;;;29.56;38.43;99028.69;6895094;28;20244;-84
2021/06/12 06:48:35;;;;;;;7.20;6.50;;;;;;;30.00;38.24;99020.09;6890275;28;20218;-84
2021/06/12 06:51:56;;;;;;;8.87;5.77;;;;;;;30.38;37.09;99036.97;6866565;28;20213;-84
2021/06/12 06:55:19;;;;;;;6.70;5.93;;;;;;;30.35;37.00;99023.72;6890358;28;20225;-84
2021/06/12 06:58:40;;;;;;;5.77;5.27;;;;;;;30.43;36.56;99036.81;6886908;28;20213;-84
2021/06/12 07:02:02;;;;;;;6.43;5.80;;;;;;;30.72;35.37;99028.63;6891208;28;20226;-84
2021/06/12 07:05:23;;;;;;;6.87;6.30;;;;;;;30.47;36.68;98996.84;6894782;28;20596;-84
2021/06/12 07:08:44;;;;;;;6.30;5.67;;;;;;;30.72;35.99;99029.41;6895098;28;20212;-84
2021/06/12 07:12:10;;;;;;;6.33;5.70;;;;;;;30.46;37.07;99022.22;6894353;28;20276;-84
2021/06/12 07:15:31;;;;;;;6.07;5.57;;;;;;;30.64;36.84;99018.28;6895238;28;20225;-84
2021/06/12 07:18:53;;;;;;;8.47;5.57;;;;;;;30.87;36.30;99020.56;6895065;28;20263;-84
2021/06/12 07:22:14;;;;;;;6.50;6.00;;;;;;;30.76;36.79;99016.47;6894023;28;20302;-84
2021/06/12 07:25:35;;;;;;;6.50;5.90;;;;;;;30.94;36.38;99028.38;6887310;28;20232;-85
2021/06/12 07:28:58;;;;;;;6.30;5.80;;;;;;;30.51;36.99;99022.91;6891305;28;20665;-84
2021/06/12 07:32:19;;;;;;;7.37;5.33;;;;;;;31.22;36.02;99024.06;6891028;28;20719;-84
2021/06/12 07:35:42;;;;;;;5.90;5.40;;;;;;;32.23;33.78;99030.16;6886630;28;20641;-84
2021/06/12 07:39:04;;;;;;;5.67;5.17;;;;;;;31.80;34.46;98985.88;6870351;28;20508;-83
2021/06/12 07:42:25;;;;;;;5.47;5.07;;;;;;;31.76;34.52;99018.38;6882154;28;20215;-84
2021/06/12 07:45:49;;;;;;;6.33;5.73;;;;;;;31.96;33.70;99020.38;6893052;28;20242;-84
2021/06/12 07:49:11;;;;;;;6.33;5.20;;;;;;;31.00;36.04;99027.88;6890577;28;20228;-84
2021/06/12 07:52:33;;;;;;;5.43;4.93;;;;;;;32.11;34.16;99003.03;6879668;28;20211;-83
2021/06/12 07:55:54;;;;;;;5.67;5.27;;;;;;;32.40;33.97;99022.50;6892621;28;20228;-84
2021/06/12 07:59:15;;;;;;;6.37;5.77;;;;;;;31.69;34.80;99009.72;6892525;28;20270;-84
2021/06/12 08:02:38;;;;;;;6.10;5.60;;;;;;;31.83;35.63;98998.34;6892073;28;20204;-84
2021/06/12 08:05:59;;;;;;;6.73;6.23;;;;;;;31.12;37.61;98996.53;6893043;28;20235;-84
2021/06/12 08:09:20;;;;;;;6.10;5.57;;;;;;;31.59;36.66;99020.41;6884646;28;20207;-83
2021/06/12 08:12:42;;;;;;;6.10;5.27;;;;;;;32.61;34.04;99008.53;6893174;28;20215;-84
2021/06/12 08:16:05;;;;;;;5.70;5.20;;;;;;;33.22;32.76;99011.13;6894305;28;20340;-83
2021/06/12 08:19:27;;;;;;;9.10;5.20;;;;;;;32.51;34.27;99006.16;6894518;28;20208;-83
2021/06/12 08:22:49;;;;;;;7.73;4.90;;;;;;;32.59;34.08;99005.22;6894257;28;20565;-85
2021/06/12 08:26:10;;;;;;;5.53;5.10;;;;;;;33.34;32.65;99018.72;6885752;28;20294;-85
2021/06/12 08:29:32;;;;;;;5.97;5.00;;;;;;;32.99;33.72;99012.72;6879792;28;20215;-85
2021/06/12 08:32:53;;;;;;;5.83;5.33;;;;;;;31.34;35.95;99019.41;6877723;28;20225;-84
2021/06/12 08:36:16;;;;;;;6.27;5.20;;;;;;;30.74;36.33;98999.31;6869396;28;20367;-85
2021/06/12 08:39:37;;;;;;;5.20;4.80;;;;;;;31.27;35.77;99010.78;6874027;28;20208;-85
2021/06/12 08:42:59;;;;;;;7.00;5.67;;;;;;;31.56;35.85;99010.78;6890493;28;20341;-85
2021/06/12 08:46:20;;;;;;;5.37;4.97;;;;;;;32.06;34.73;99007.97;6886409;28;20224;-85
2021/06/12 08:49:42;;;;;;;6.70;5.30;;;;;;;32.32;35.01;98986.31;6894345;28;20208;-85
2021/06/12 08:53:04;;;;;;;5.73;5.23;;;;;;;32.34;33.69;98981.19;6893747;28;20229;-85
2021/06/12 08:56:25;;;;;;;8.00;5.50;;;;;;;32.49;33.92;99006.47;6893913;28;20221;-84
2021/06/12 08:59:47;;;;;;;5.70;5.13;;;;;;;31.52;35.96;99017.34;6897636;28;20201;-85
2021/06/12 09:03:13;;;;;;;5.33;4.83;;;;;;;32.45;33.79;99016.72;6896210;28;20719;-84
2021/06/12 09:06:35;;;;;;;7.50;4.07;;;;;;;32.06;34.01;99021.94;6898212;28;20227;-83
2021/06/12 09:09:58;;;;;;;9.93;6.30;;;;;;;31.15;36.92;99021.78;6897997;28;20205;-83
2021/06/12 09:13:38;;;;;;;6.60;5.50;;;;;;;32.05;36.46;99023.94;6898087;28;20211;-84
2021/06/12 09:16:59;;;;;;;7.20;4.53;;;;;;;33.14;33.59;99017.63;6896763;28;20199;-84
2021/06/12 09:20:40;;;;;;;5.13;4.70;;;;;;;32.29;34.93;99026.88;6871159;28;20212;-83
2021/06/12 09:24:05;;;;;;;6.13;4.90;;;;;;;32.66;35.38;99023.06;6871083;28;20727;-84
2021/06/12 09:27:27;;;;;;;4.53;4.13;;;;;;;31.86;35.95;99026.38;6887829;28;20222;-84
2021/06/12 09:30:48;;;;;;;7.63;4.00;;;;;;;31.61;37.23;99034.84;6879011;28;20797;-83
2021/06/12 09:34:11;;;;;;;4.63;3.90;;;;;;;31.72;37.29;99036.94;6870985;28;20231;-83
2021/06/12 09:37:34;;;;;;;3.83;3.23;;;;;;;31.82;35.75;99030.16;6886021;28;20203;-83
2021/06/12 09:40:55;;;;;;;3.80;3.40;;;;;;;32.12;35.27;99026.97;6872477;28;20208;-83
2021/06/12 09:44:32;;;;;;;4.70;3.13;;;;;;;31.60;36.21;99025.66;6891483;28;20243;-84
2021/06/12 09:48:08;;;;;;;3.23;2.80;;;;;;;31.14;36.44;99008.16;6875701;28;20225;-84
2021/06/12 09:51:29;;;;;;;3.40;3.10;;;;;;;31.60;36.25;99020.09;6896631;28;20193;-84
2021/06/12 09:54:51;;;;;;;3.33;3.10;;;;;;;31.76;35.43;99009.19;6897101;28;20222;-84
2021/06/12 09:58:13;;;;;;;5.43;3.10;;;;;;;31.94;36.16;99016.28;6884949;28;20589;-85
2021/06/12 10:01:36;;;;;;;4.40;2.80;;;;;;;32.24;35.27;99015.06;6889374;28;20656;-85
2021/06/12 10:04:58;;;;;;;3.40;2.57;;;;;;;31.11;37.17;99017.19;6891624;28;20220;-85
2021/06/12 10:08:19;;;;;;;2.80;2.60;;;;;;;31.40;36.77;99014.47;6891993;28;20233;-85
2021/06/12 10:11:41;;;;;;;3.57;2.60;;;;;;;32.02;34.86;99005.06;6882109;28;20564;-85
2021/06/12 10:15:06;;;;;;;3.00;2.80;;;;;;;31.45;36.72;99005.91;6881639;28;20709;-84
2021/06/12 10:18:29;;;;;;;3.27;2.80;;;;;;;32.09;34.85;99004.53;6869643;28;20286;-85
2021/06/12 10:21:50;;;;;;;6.63;2.80;;;;;;;32.11;34.61;99005.00;6868982;28;20208;-84
2021/06/12 10:25:16;;;;;;;3.57;2.87;;;;;;;32.94;33.58;99000.94;6877821;28;20231;-86
2021/06/12 10:28:38;;;;;;;2.70;2.50;;;;;;;32.00;35.01;99009.34;6896115;28;20299;-85
2021/06/12 10:31:59;;;;;;;3.27;2.90;;;;;;;32.40;33.86;99010.50;6894687;28;20207;-83
2021/06/12 10:35:24;;;;;;;3.67;2.57;;;;;;;33.05;33.04;99002.94;6896256;28;20311;-83
2021/06/12 10:38:45;;;;;;;3.30;2.60;;;;;;;33.20;32.92;98991.06;6879722;28;20213;-84
2021/06/12 10:42:13;;;;;;;3.07;2.77;;;;;;;33.83;32.13;99003.59;6883007;28;20197;-86
2021/06/12 10:45:34;;;;;;;3.03;2.77;;;;;;;32.38;34.16;98993.31;6895660;28;20243;-84
2021/06/12 10:48:56;;;;;;;3.87;2.80;;;;;;;32.48;33.77;98982.53;6895662;28;20205;-85
2021/06/12 10:52:41;;;;;;;7.20;3.07;;;;;;;33.71;33.23;98992.38;6896289;28;20236;-86
2021/06/12 10:56:03;;;;;;;3.37;2.80;;;;;;;32.98;31.98;98977.56;6892878;28;20225;-84
2021/06/12 10:59:42;;;;;;;6.57;3.37;;;;;;;32.74;33.07;98966.31;6894200;28;20702;-84
2021/06/12 11:03:03;;;;;;;3.37;3.07;;;;;;;33.31;32.08;98952.34;6895259;28;20661;-84
2021/06/12 11:06:38;;;;;;;4.30;2.60;;;;;;;33.09;32.35;98949.97;6895611;28;20239;-84
2021/06/12 11:10:25;;;;;;;4.10;3.10;;;;;;;34.50;30.95;98973.63;6895689;28;20197;-84
2021/06/12 11:14:25;;;;;;;2.90;2.60;;;;;;;34.08;30.20;98972.38;6895589;28;20224;-84
2021/06/12 11:18:13;;;;;;;4.83;3.00;;;;;;;33.26;32.06;98958.13;6895494;28;20217;-84
2021/06/12 11:21:34;;;;;;;3.80;2.90;;;;;;;33.80;31.13;98963.16;6893840;28;20213;-84
2021/06/12 11:24:58;;;;;;;6.13;2.90;;;;;;;32.68;32.39;98964.91;6895653;28;20232;-83
2021/06/12 11:28:26;;;;;;;3.00;2.80;;;;;;;34.25;30.98;98957.28;6895389;28;20295;-84
2021/06/12 11:31:47;;;;;;;4.83;2.87;;;;;;;33.33;32.37;98952.81;6879131;28;20210;-85
2021/06/12 11:35:08;;;;;;;2.80;2.60;;;;;;;34.41;29.86;98969.38;6895229;28;20231;-85
2021/06/12 11:38:32;;;;;;;4.63;2.50;;;;;;;35.12;29.57;98964.53;6895981;28;20205;-86
2021/06/12 11:41:53;;;;;;;3.13;2.60;;;;;;;34.23;30.47;98940.03;6882858;28;20209;-87
2021/06/12 11:45:21;;;;;;;4.30;2.67;;;;;;;34.94;29.58;98971.66;6896090;28;20396;-86
2021/06/12 11:48:43;;;;;;;4.03;2.80;;;;;;;34.48;28.79;98966.78;6891750;28;20235;-84
2021/06/12 11:52:05;;;;;;;2.83;2.60;;;;;;;34.27;28.81;98958.59;6868426;28;20201;-85
2021/06/12 11:55:27;;;;;;;3.23;2.50;;;;;;;33.27;29.50;98929.88;6869331;28;20225;-86
2021/06/12 11:58:55;;;;;;;2.83;2.53;;;;;;;32.98;29.59;98963.59;6869038;28;20637;-86
2021/06/12 12:02:20;;;;;;;4.77;3.10;;;;;;;33.17;29.58;98927.50;6885703;28;20568;-86
2021/06/12 12:05:43;;;;;;;3.07;2.63;;;;;;;34.35;28.53;98951.19;6889369;28;20455;-86
2021/06/12 12:09:05;;;;;;;2.80;2.43;;;;;;;34.14;28.68;98979.34;6895611;28;20657;-86
2021/06/12 12:12:33;;;;;;;3.77;2.73;;;;;;;33.27;30.73;98969.00;6894555;28;20216;-86
2021/06/12 12:15:54;;;;;;;3.80;2.60;;;;;;;33.55;29.13;98958.72;6895573;28;20277;-86
2021/06/12 12:19:17;;;;;;;3.37;2.60;;;;;;;33.41;29.79;98966.66;6895111;28;20262;-87
2021/06/12 12:22:41;;;;;;;2.20;2.00;;;;;;;33.77;29.98;98924.69;6894426;28;20212;-86
2021/06/12 12:26:07;;;;;;;4.27;2.57;;;;;;;34.01;29.96;98968.59;6894744;28;20229;-86
2021/06/12 12:29:31;;;;;;;4.80;3.00;;;;;;;33.98;28.99;98966.47;6894475;28;20212;-87
2021/06/12 12:32:52;;;;;;;3.57;2.00;;;;;;;33.90;28.88;98964.66;6895927;28;20235;-87
2021/06/12 12:36:16;;;;;;;2.47;2.27;;;;;;;34.08;28.92;98974.38;6899494;28;20701;-87
2021/06/12 12:39:38;;;;;;;2.00;1.80;;;;;;;33.28;29.80;98961.41;6900455;28;20211;-85
2021/06/12 12:43:01;;;;;;;2.07;1.77;;;;;;;32.73;29.92;98964.66;6898840;28;20212;-87
2021/06/12 12:46:22;;;;;;;2.30;2.10;;;;;;;33.22;28.95;98946.84;6897845;28;20232;-87
2021/06/12 12:49:44;;;;;;;2.93;2.10;;;;;;;31.96;30.37;98866.94;6899176;28;20211;-87
2021/06/12 12:53:08;;;;;;;3.37;1.93;;;;;;;33.23;29.05;98975.59;6899400;28;20208;-87
2021/06/12 12:56:42;;;;;;;3.20;2.13;;;;;;;33.28;28.43;98959.44;6899852;28;20682;-85
2021/06/12 13:00:05;;;;;;;5.07;2.20;;;;;;;33.06;28.48;98965.47;6894702;28;20193;-85
2021/06/12 13:03:26;;;;;;;2.40;2.20;;;;;;;33.01;28.80;98967.69;6893387;28;20284;-87
2021/06/12 13:06:47;;;;;;;2.53;2.33;;;;;;;33.26;28.92;98947.75;6899817;28;20224;-86
2021/06/12 13:10:14;;;;;;;3.03;2.73;;;;;;;33.38;29.06;98950.56;6898224;28;20211;-87
2021/06/12 13:13:40;;;;;;;2.63;2.43;;;;;;;33.58;28.93;98924.47;6898666;28;20212;-87
2021/06/12 13:17:06;;;;;;;2.90;2.60;;;;;;;33.60;29.47;98968.88;6906095;28;20185;-86
2021/06/12 13:20:28;;;;;;;3.13;2.83;;;;;;;32.90;30.57;98953.31;6917578;28;20203;-85
2021/06/12 13:24:00;;;;;;;3.13;2.20;;;;;;;32.83;29.20;98983.03;6905970;28;20315;-86
2021/06/12 13:27:33;;;;;;;3.57;2.10;;;;;;;33.26;28.27;98972.91;6909829;28;20232;-84
2021/06/12 13:30:54;;;;;;;1.90;1.80;;;;;;;33.55;27.96;98967.09;6917276;28;20196;-86
2021/06/12 13:34:26;;;;;;;2.67;1.90;;;;;;;33.64;28.01;98965.00;6901581;28;20225;-87
2021/06/12 13:38:01;;;;;;;2.90;1.90;;;;;;;33.20;28.84;98977.09;6880345;28;20204;-87
2021/06/12 13:41:22;;;;;;;1.97;1.60;;;;;;;33.53;26.73;98968.63;6897077;28;20208;-87
2021/06/12 13:45:00;;;;;;;2.13;1.70;;;;;;;32.46;27.84;98961.69;6897360;28;20233;-86
2021/06/12 13:48:22;;;;;;;2.63;1.80;;;;;;;33.21;27.57;98975.13;6897544;28;20218;-87
2021/06/12 13:51:43;;;;;;;1.57;1.47;;;;;;;33.07;27.70;98975.47;6892659;28;20226;-86
2021/06/12 13:55:09;;;;;;;2.33;1.50;;;;;;;33.76;26.83;98978.16;6870364;28;20230;-87
2021/06/12 13:58:30;;;;;;;4.90;2.07;;;;;;;33.51;27.66;98970.97;6895369;28;20235;-87
2021/06/12 14:01:53;;;;;;;1.93;1.83;;;;;;;33.17;28.77;98968.59;6896657;28;20539;-87
2021/06/12 14:05:14;;;;;;;3.50;1.70;;;;;;;33.50;28.93;98964.53;6897806;28;20255;-85
2021/06/12 14:08:35;;;;;;;2.20;1.90;;;;;;;33.03;27.92;98960.56;6897417;28;20228;-85
2021/06/12 14:11:57;;;;;;;1.57;1.47;;;;;;;33.98;27.09;98967.31;6897112;28;20216;-87
2021/06/12 14:15:18;;;;;;;2.93;1.77;;;;;;;33.15;27.89;98955.00;6897010;28;20234;-87
2021/06/12 14:18:40;;;;;;;4.13;1.70;;;;;;;33.00;28.21;98968.81;6897221;28;20660;-87
2021/06/12 14:22:02;;;;;;;1.90;1.80;;;;;;;33.17;27.82;98946.25;6878705;28;20657;-87
2021/06/12 14:25:24;;;;;;;2.27;1.80;;;;;;;33.24;28.32;98972.44;6896344;28;20220;-87
2021/06/12 14:28:45;;;;;;;2.10;1.60;;;;;;;32.34;27.78;98976.44;6889201;28;20576;-87
2021/06/12 14:32:07;;;;;;;1.40;1.30;;;;;;;32.31;28.82;98967.94;6868948;28;20284;-87
2021/06/12 14:35:29;;;;;;;1.87;1.60;;;;;;;32.61;27.82;98956.25;6869581;28;20295;-85
2021/06/12 14:38:50;;;;;;;2.30;1.50;;;;;;;32.66;26.89;98944.88;6870306;28;20218;-86
2021/06/12 14:42:14;;;;;;;1.63;1.20;;;;;;;33.22;27.21;98980.38;6869171;28;20206;-87
2021/06/12 14:45:35;;;;;;;1.60;1.27;;;;;;;33.10;26.52;98969.19;6869049;28;20326;-87
2021/06/12 14:48:57;;;;;;;1.97;1.53;;;;;;;32.59;27.89;98975.34;6869778;28;20229;-87
2021/06/12 14:52:21;;;;;;;3.63;1.40;;;;;;;31.93;28.84;98942.13;6869673;28;20269;-84
2021/06/12 14:55:42;;;;;;;2.00;1.53;;;;;;;32.07;28.26;98934.31;6869770;28;20296;-87
2021/06/12 14:59:03;;;;;;;3.37;1.40;;;;;;;32.32;28.82;98952.81;6870863;28;20211;-86
2021/06/12 15:02:25;;;;;;;1.50;1.40;;;;;;;32.33;29.22;98963.63;6895932;28;20266;-87
2021/06/12 15:05:46;;;;;;;1.57;1.47;;;;;;;32.07;29.06;98956.63;6895418;28;20233;-84
2021/06/12 15:09:08;;;;;;;2.13;1.33;;;;;;;31.83;30.17;98968.47;6895816;28;20270;-87
2021/06/12 15:12:29;;;;;;;1.70;1.50;;;;;;;31.31;31.12;98955.19;6895212;28;20212;-85
2021/06/12 15:15:51;;;;;;;1.77;1.30;;;;;;;31.86;30.49;98953.84;6896699;28;20244;-86
2021/06/12 15:19:12;;;;;;;1.33;1.23;;;;;;;31.78;29.51;98965.06;6896626;28;20205;-86
2021/06/12 15:22:33;;;;;;;2.40;1.33;;;;;;;31.80;29.26;98969.16;6894475;28;20217;-85
2021/06/12 15:25:55;;;;;;;1.80;1.40;;;;;;;31.50;29.59;98964.75;6871939;28;20274;-84
2021/06/12 15:29:16;;;;;;;1.70;1.60;;;;;;;32.03;28.92;98964.88;6869045;28;20544;-85
2021/06/12 15:32:38;;;;;;;1.40;1.30;;;;;;;32.08;28.30;98977.78;6867004;28;20209;-82
2021/06/12 15:35:59;;;;;;;4.33;1.20;;;;;;;31.99;29.16;98963.91;6867733;28;20227;-85
2021/06/12 15:39:20;;;;;;;1.20;1.10;;;;;;;32.22;28.96;98981.94;6868241;28;20219;-85
2021/06/12 15:42:43;;;;;;;1.17;1.07;;;;;;;32.08;29.25;98975.78;6868172;28;20351;-85
2021/06/12 15:46:05;;;;;;;2.33;1.47;;;;;;;31.93;29.28;98975.59;6867997;28;20651;-86
2021/06/12 15:49:26;;;;;;;1.60;0.93;;;;;;;32.01;28.73;98958.78;6867840;28;20296;-85
2021/06/12 15:52:47;;;;;;;2.67;1.17;;;;;;;31.97;29.28;98974.56;6867557;28;20207;-85
2021/06/12 15:56:08;;;;;;;1.20;1.10;;;;;;;32.10;28.73;98990.25;6872603;28;20223;-85
2021/06/12 15:59:31;;;;;;;2.50;1.40;;;;;;;32.22;28.91;98967.16;6895040;28;20533;-85
2021/06/12 16:02:52;;;;;;;1.37;1.07;;;;;;;31.44;30.11;98991.16;6894019;28;20209;-85
2021/06/12 16:06:13;;;;;;;1.60;0.83;;;;;;;31.62;29.43;98991.88;6895763;28;20253;-84
2021/06/12 16:09:34;;;;;;;2.57;1.10;;;;;;;31.51;29.50;98999.81;6900207;28;20210;-89
2021/06/12 16:12:57;;;;;;;2.63;0.80;;;;;;;31.18;29.76;98993.25;6899376;28;20218;-86
2021/06/12 16:16:19;;;;;;;1.23;1.07;;;;;;;30.83;30.16;98961.09;6898285;28;20370;-86
2021/06/12 16:19:40;;;;;;;1.17;1.07;;;;;;;31.21;29.74;98995.38;6900264;28;20267;-86
2021/06/12 16:23:02;;;;;;;1.60;0.83;;;;;;;31.32;29.98;98991.06;6899540;28;20205;-86
2021/06/12 16:26:23;;;;;;;1.90;0.87;;;;;;;31.35;29.78;98975.63;6899824;28;20233;-88
2021/06/12 16:29:44;;;;;;;0.97;0.97;;;;;;;30.87;30.31;98972.38;6900150;28;20214;-86
2021/06/12 16:33:06;;;;;;;1.60;1.20;;;;;;;31.36;30.10;98960.56;6899382;28;20329;-86
2021/06/12 16:36:28;;;;;;;3.33;1.13;;;;;;;31.20;30.06;98976.22;6889069;28;20241;-86
2021/06/12 16:39:49;;;;;;;1.63;1.10;;;;;;;30.63;31.31;98986.03;6872925;28;20218;-86
2021/06/12 16:43:10;;;;;;;2.40;1.03;;;;;;;30.16;32.67;98981.50;6871833;28;20541;-86
2021/06/12 16:46:31;;;;;;;1.40;1.23;;;;;;;29.91;32.89;98994.22;6872858;28;20244;-85
2021/06/12 16:49:54;;;;;;;1.57;1.47;;;;;;;30.40;32.58;98996.53;6873276;28;20218;-86
2021/06/12 16:53:15;;;;;;;1.27;1.07;;;;;;;30.81;31.90;98984.84;6873835;28;20203;-86
2021/06/12 17:00:12;;;;;;;2.07;1.00;;;;;;;30.91;32.24;99002.00;6886380;28;20205;-85
2021/06/12 17:03:33;;;;;;;0.93;0.80;;;;;;;31.14;31.76;98997.03;6875162;28;20664;-86
2021/06/12 17:06:56;;;;;;;1.60;1.10;;;;;;;30.60;31.56;99023.69;6898860;28;20310;-86
2021/06/12 17:10:18;;;;;;;1.13;1.03;;;;;;;29.87;32.25;98984.91;6898540;28;20219;-86
2021/06/12 17:13:39;;;;;;;2.70;1.03;;;;;;;30.36;32.14;98984.44;6898071;28;20215;-86
2021/06/12 17:17:00;;;;;;;2.17;2.00;;;;;;;29.57;34.95;99024.78;6897985;28;20214;-86
2021/06/12 17:20:21;;;;;;;2.17;1.93;;;;;;;29.88;34.41;99033.81;6891878;28;20207;-86
2021/06/12 17:23:44;;;;;;;6.33;1.97;;;;;;;29.41;35.50;99006.88;6871714;28;20238;-85
2021/06/12 17:27:05;;;;;;;1.90;1.80;;;;;;;29.29;36.03;99067.78;6871187;28;20267;-85
2021/06/12 17:30:29;;;;;;;3.13;2.03;;;;;;;29.07;35.96;99067.84;6870735;28;20209;-85
2021/06/12 17:33:50;;;;;;;4.47;2.27;;;;;;;29.26;36.10;99082.28;6871583;28;20342;-86
2021/06/12 17:37:12;;;;;;;4.60;2.53;;;;;;;29.04;36.53;99098.19;6964045;23;20296;-89
2021/06/12 17:40:35;;;;;;;3.10;2.27;;;;;;;28.62;37.29;99076.50;6897775;28;20204;-88
2021/06/12 17:43:56;;;;;;;3.73;2.40;;;;;;;28.40;37.80;99098.69;6898509;28;20202;-86
2021/06/12 17:47:18;;;;;;;2.50;2.20;;;;;;;28.32;38.15;99111.31;6890665;28;20226;-85
2021/06/12 17:50:40;;;;;;;3.40;2.33;;;;;;;28.30;38.11;99108.03;6866268;28;20715;-84
2021/06/12 17:54:01;;;;;;;5.00;2.50;;;;;;;28.01;38.17;99123.41;6870168;28;20240;-84
2021/06/12 17:57:24;;;;;;;2.87;2.30;;;;;;;27.66;37.99;99093.66;6870733;28;20633;-84
2021/06/12 18:00:45;;;;;;;2.87;2.17;;;;;;;27.81;38.15;99135.75;6869933;28;20209;-84
2021/06/12 18:04:06;;;;;;;3.17;2.67;;;;;;;27.75;37.38;99064.91;6870392;28;20213;-84
2021/06/12 18:07:30;;;;;;;2.77;2.57;;;;;;;27.22;38.19;99066.56;6869779;28;20238;-85
2021/06/12 18:10:51;;;;;;;4.13;2.60;;;;;;;27.54;38.05;99113.53;6870503;28;20208;-84
2021/06/12 18:14:15;;;;;;;3.43;2.40;;;;;;;27.91;38.18;99154.94;6853650;28;20216;-85
2021/06/12 18:17:36;;;;;;;3.10;2.40;;;;;;;27.74;38.47;99164.97;6869499;28;20681;-85
2021/06/12 18:20:59;;;;;;;4.90;3.07;;;;;;;27.87;38.24;99170.56;6869782;28;20701;-85
2021/06/12 18:24:20;;;;;;;3.00;2.70;;;;;;;27.77;38.31;99183.78;6871302;28;20209;-85
2021/06/12 18:27:42;;;;;;;2.93;2.63;;;;;;;28.10;37.76;99174.22;6870272;28;20260;-84
2021/06/12 18:31:04;;;;;;;2.80;2.60;;;;;;;27.83;38.63;99190.88;6870604;28;20207;-84
2021/06/12 18:34:25;;;;;;;2.77;2.50;;;;;;;27.15;39.78;99181.56;6870505;28;20210;-85
2021/06/12 18:37:50;;;;;;;3.40;3.10;;;;;;;27.20;39.76;99187.06;6869515;28;20239;-84
2021/06/12 18:41:11;;;;;;;4.70;3.10;;;;;;;27.09;39.88;99200.22;6868849;28;20212;-85
2021/06/12 18:44:32;;;;;;;4.13;3.03;;;;;;;27.32;39.95;99199.28;6870089;28;20224;-86
2021/06/12 18:47:55;;;;;;;3.07;2.73;;;;;;;27.18;40.06;99201.19;6869956;28;20230;-85
2021/06/12 18:51:16;;;;;;;3.17;2.83;;;;;;;26.51;40.38;99165.72;6870020;28;20209;-85
2021/06/12 18:54:37;;;;;;;4.43;3.33;;;;;;;26.88;40.33;99187.84;6870143;28;20209;-85
2021/06/12 18:57:58;;;;;;;5.47;3.07;;;;;;;27.19;39.83;99215.88;6868617;28;20730;-84
2021/06/12 19:01:20;;;;;;;3.40;3.20;;;;;;;27.14;39.68;99204.84;6860388;28;20575;-87
2021/06/12 19:04:42;;;;;;;3.47;3.17;;;;;;;27.29;39.50;99222.06;6869477;28;20213;-84
2021/06/12 19:08:04;;;;;;;3.63;3.20;;;;;;;27.09;39.83;99222.38;6869074;28;20236;-84
2021/06/12 19:11:25;;;;;;;3.27;2.97;;;;;;;27.25;39.37;99223.78;6868780;28;20980;-84
2021/06/12 19:14:46;;;;;;;4.47;3.20;;;;;;;26.97;39.61;99204.56;6868537;28;20211;-85
2021/06/12 19:18:07;;;;;;;3.60;3.30;;;;;;;26.89;40.19;99225.44;6842413;29;20571;-84
2021/06/12 19:21:30;;;;;;;4.13;3.03;;;;;;;26.82;40.53;99235.25;6842457;29;20268;-85
2021/06/12 19:24:51;;;;;;;3.20;2.90;;;;;;;26.94;40.02;99239.22;6857601;28;20210;-84
2021/06/12 19:28:14;;;;;;;3.57;3.27;;;;;;;26.90;40.47;99240.13;6865089;28;20234;-86